createdAt,value
2022-08-03T00:00:44.298Z,5.78
2022-08-03T00:03:15.497Z,5.60
2022-08-03T00:06:04.010Z,6.13
2022-08-03T00:08:33.822Z,5.82
2022-08-03T00:11:09.497Z,5.82
2022-08-03T00:13:38.841Z,5.72
2022-08-03T00:16:08.141Z,5.53
2022-08-03T00:18:39.341Z,5.72
2022-08-03T00:21:08.784Z,5.97
2022-08-03T00:23:51.277Z,5.50
2022-08-03T00:26:21.786Z,6.15
2022-08-03T00:28:51.037Z,6.13
2022-08-03T00:31:23.122Z,5.78
2022-08-03T00:34:12.521Z,5.95
2022-08-03T00:36:42.142Z,5.40
2022-08-03T00:39:11.587Z,5.60
2022-08-03T00:41:40.810Z,5.53
2022-08-03T00:44:12.676Z,5.88
2022-08-03T00:46:42.056Z,5.93
2022-08-03T00:49:13.206Z,6.43
2022-08-03T00:51:45.097Z,5.95
2022-08-03T00:54:14.414Z,6.05
2022-08-03T00:56:59.477Z,6.85
2022-08-03T00:59:29.632Z,6.28
2022-08-03T01:01:59.227Z,6.43
2022-08-03T01:04:30.544Z,6.55
2022-08-03T01:07:10.832Z,6.60
2022-08-03T01:09:48.398Z,6.53
2022-08-03T01:12:24.830Z,6.50
2022-08-03T01:15:00.689Z,6.40
2022-08-03T01:17:38.946Z,6.45
2022-08-03T01:20:15.514Z,6.60
2022-08-03T01:23:02.768Z,6.78
2022-08-03T01:25:42.408Z,7.13
2022-08-03T01:28:30.862Z,6.57
2022-08-03T01:31:08.532Z,6.70
2022-08-03T01:33:41.178Z,7.90
2022-08-03T01:36:15.274Z,6.80
2022-08-03T01:38:48.683Z,6.97
2022-08-03T01:41:21.978Z,7.00
2022-08-03T01:44:26.486Z,6.85
2022-08-03T01:49:19.472Z,6.63
2022-08-03T01:52:04.033Z,7.32
2022-08-03T01:54:38.302Z,7.47
2022-08-03T01:57:09.929Z,6.90
2022-08-03T01:59:41.206Z,6.63
2022-08-03T02:02:32.895Z,7.07
2022-08-03T02:05:10.609Z,7.90
2022-08-03T02:07:42.766Z,7.55
2022-08-03T02:10:15.680Z,7.35
2022-08-03T02:12:50.980Z,7.18
2022-08-03T02:15:22.105Z,8.02
2022-08-03T02:17:55.994Z,7.47
2022-08-03T02:20:26.824Z,7.70
2022-08-03T02:22:56.272Z,8.53
2022-08-03T02:25:25.717Z,8.05
2022-08-03T02:28:03.130Z,7.90
2022-08-03T02:30:38.713Z,7.50
2022-08-03T02:33:14.213Z,7.70
2022-08-03T02:35:45.795Z,7.18
2022-08-03T02:40:46.714Z,8.27
2022-08-03T02:43:29.238Z,7.20
2022-08-03T02:46:21.638Z,8.05
2022-08-03T02:49:42.632Z,7.70
2022-08-03T02:51:58.042Z,6.95
2022-08-03T02:57:08.704Z,7.45
2022-08-03T02:59:39.519Z,7.32
2022-08-03T03:02:11.675Z,7.53
2022-08-03T03:05:52.794Z,7.30
2022-08-03T03:07:51.490Z,7.03
2022-08-03T03:10:23.302Z,7.68
2022-08-03T03:12:54.926Z,7.57
2022-08-03T03:17:55.310Z,8.90
2022-08-03T03:20:30.092Z,6.63
2022-08-03T03:23:01.856Z,7.85
2022-08-03T03:25:32.759Z,7.53
2022-08-03T03:28:02.437Z,7.75
2022-08-03T03:30:32.613Z,7.25
2022-08-03T03:33:02.617Z,7.22
2022-08-03T03:35:37.965Z,7.25
2022-08-03T03:38:09.222Z,7.72
2022-08-03T03:40:39.385Z,7.50
2022-08-03T03:43:10.755Z,8.13
2022-08-03T03:45:42.459Z,8.15
2022-08-03T03:50:42.433Z,7.57
2022-08-03T03:53:15.841Z,8.30
2022-08-03T03:55:59.317Z,8.13
2022-08-03T03:58:34.174Z,8.35
2022-08-03T04:01:03.773Z,6.88
2022-08-03T04:03:32.983Z,6.80
2022-08-03T04:06:17.135Z,6.85
2022-08-03T04:09:00.114Z,6.47
2022-08-03T04:11:32.793Z,6.57
2022-08-03T04:14:08.523Z,6.78
2022-08-03T04:16:43.878Z,7.18
2022-08-03T04:19:22.616Z,6.85
2022-08-03T04:21:59.557Z,6.75
2022-08-03T04:24:35.852Z,7.80
2022-08-03T04:27:09.055Z,7.22
2022-08-03T04:29:48.083Z,7.72
2022-08-03T04:32:19.886Z,6.93
2022-08-03T04:34:49.328Z,7.15
2022-08-03T04:37:27.418Z,7.05
2022-08-03T04:39:59.802Z,7.57
2022-08-03T04:42:42.715Z,7.20
2022-08-03T04:45:15.189Z,7.50
2022-08-03T04:47:45.171Z,7.47
2022-08-03T04:50:20.877Z,7.43
2022-08-03T04:53:09.819Z,7.25
2022-08-03T04:55:39.032Z,7.65
2022-08-03T04:58:08.474Z,7.97
2022-08-03T05:00:37.919Z,7.15
2022-08-03T05:03:20.187Z,6.80
2022-08-03T05:06:01.657Z,7.55
2022-08-03T05:08:33.405Z,7.82
2022-08-03T05:11:03.473Z,7.15
2022-08-03T05:13:32.603Z,8.05
2022-08-03T05:16:01.860Z,7.20
2022-08-03T05:18:31.840Z,7.20
2022-08-03T05:21:01.103Z,7.95
2022-08-03T05:23:30.277Z,8.25
2022-08-03T05:26:01.708Z,7.45
2022-08-03T05:30:59.843Z,7.07
2022-08-03T05:33:29.082Z,7.15
2022-08-03T05:36:03.200Z,8.25
2022-08-03T05:38:35.528Z,8.38
2022-08-03T05:41:20.212Z,8.52
2022-08-03T05:43:53.330Z,7.65
2022-08-03T05:46:23.777Z,7.85
2022-08-03T05:48:53.022Z,6.80
2022-08-03T05:51:24.063Z,7.13
2022-08-03T05:53:53.352Z,6.85
2022-08-03T05:56:27.038Z,6.93
2022-08-03T05:58:56.653Z,7.03
2022-08-03T06:01:26.220Z,7.30
2022-08-03T06:03:55.510Z,6.90
2022-08-03T06:06:25.874Z,7.10
2022-08-03T06:08:57.906Z,6.78
2022-08-03T06:11:29.084Z,7.28
2022-08-03T06:14:00.752Z,7.07
2022-08-03T06:16:29.936Z,7.80
2022-08-03T06:18:58.986Z,7.90
2022-08-03T06:21:28.984Z,7.00
2022-08-03T06:24:00.185Z,7.45
2022-08-03T06:26:35.284Z,7.55
2022-08-03T06:29:04.598Z,7.15
2022-08-03T06:31:37.873Z,7.00
2022-08-03T06:34:33.748Z,7.50
2022-08-03T06:37:01.817Z,7.32
2022-08-03T06:39:31.816Z,6.65
2022-08-03T06:42:03.403Z,6.50
2022-08-03T06:44:32.605Z,6.63
2022-08-03T06:47:02.098Z,7.10
2022-08-03T06:49:31.472Z,6.97
2022-08-03T06:52:05.802Z,6.95
2022-08-03T06:54:37.983Z,7.47
2022-08-03T06:57:11.175Z,6.00
2022-08-03T07:00:08.644Z,6.43
2022-08-03T07:02:30.271Z,6.10
2022-08-03T07:05:00.633Z,5.28
2022-08-03T07:07:30.670Z,5.40
2022-08-03T07:09:59.807Z,6.15
2022-08-03T07:12:31.926Z,6.28
2022-08-03T07:15:03.370Z,5.93
2022-08-03T07:17:37.270Z,5.25
2022-08-03T07:20:08.902Z,5.15
2022-08-03T07:22:38.557Z,4.43
2022-08-03T07:25:09.004Z,4.40
2022-08-03T07:27:40.526Z,5.50
2022-08-03T07:30:11.203Z,5.63
2022-08-03T07:32:50.286Z,5.10
2022-08-03T07:35:24.904Z,4.68
2022-08-03T07:37:55.326Z,3.80
2022-08-03T07:40:25.144Z,4.03
2022-08-03T07:43:03.452Z,3.75
2022-08-03T07:45:33.473Z,3.60
2022-08-03T07:48:02.685Z,3.70
2022-08-03T07:50:32.921Z,3.65
2022-08-03T07:53:02.101Z,3.60
2022-08-03T07:55:31.298Z,3.38
2022-08-03T07:58:08.953Z,3.70
2022-08-03T08:00:38.493Z,3.30
2022-08-03T08:03:07.622Z,3.20
2022-08-03T08:05:36.941Z,3.65
2022-08-03T08:08:06.927Z,3.30
2022-08-03T08:10:37.046Z,3.55
2022-08-03T08:13:08.233Z,3.70
2022-08-03T08:18:12.410Z,3.65
2022-08-03T08:20:43.146Z,3.80
2022-08-03T08:23:32.618Z,3.80
2022-08-03T08:26:04.196Z,3.50
2022-08-03T08:28:35.312Z,3.67
2022-08-03T08:34:01.510Z,4.00
2022-08-03T08:36:23.678Z,3.83
2022-08-03T08:38:52.901Z,3.47
2022-08-03T08:41:22.155Z,3.63
2022-08-03T08:43:58.121Z,3.78
2022-08-03T08:46:30.962Z,3.47
2022-08-03T08:49:04.982Z,3.80
2022-08-03T08:51:54.440Z,3.90
2022-08-03T08:54:27.950Z,3.95
2022-08-03T08:56:59.060Z,4.05
2022-08-03T09:02:18.618Z,4.10
2022-08-03T09:04:48.519Z,4.22
2022-08-03T09:07:20.472Z,3.92
2022-08-03T09:10:11.789Z,4.20
2022-08-03T09:12:42.885Z,4.40
2022-08-03T09:15:30.856Z,3.72
2022-08-03T09:18:02.134Z,3.63
2022-08-03T09:20:33.140Z,3.63
2022-08-03T09:23:19.114Z,3.88
2022-08-03T09:26:01.335Z,3.88
2022-08-03T09:28:57.986Z,3.50
2022-08-03T09:31:36.531Z,3.45
2022-08-03T09:34:07.689Z,3.70
2022-08-03T09:36:38.710Z,3.60
2022-08-03T09:39:10.954Z,3.83
2022-08-03T09:41:41.625Z,3.83
2022-08-03T09:44:24.680Z,4.63
2022-08-03T09:46:58.115Z,3.67
2022-08-03T09:49:27.349Z,3.58
2022-08-03T09:52:31.584Z,4.32
2022-08-03T09:54:52.862Z,3.78
2022-08-03T09:57:24.794Z,3.78
2022-08-03T10:00:04.630Z,4.00
2022-08-03T10:02:44.624Z,3.95
2022-08-03T10:05:17.654Z,3.42
2022-08-03T10:07:50.650Z,3.75
2022-08-03T10:10:29.896Z,3.90
2022-08-03T10:16:21.404Z,3.83
2022-08-03T10:18:22.711Z,4.22
2022-08-03T10:23:24.624Z,3.92
2022-08-03T10:25:59.874Z,3.83
2022-08-03T10:28:37.055Z,3.75
2022-08-03T10:31:09.203Z,3.72
2022-08-03T10:33:50.972Z,3.92
2022-08-03T10:36:26.622Z,3.83
2022-08-03T10:38:58.108Z,4.43
2022-08-03T10:41:32.905Z,3.90
2022-08-03T10:44:07.394Z,3.88
2022-08-03T10:46:44.197Z,3.80
2022-08-03T10:49:25.502Z,3.60
2022-08-03T10:52:13.409Z,3.55
2022-08-03T10:55:09.974Z,3.90
2022-08-03T10:57:49.711Z,4.00
2022-08-03T11:00:21.287Z,4.40
2022-08-03T11:05:40.362Z,4.05
2022-08-03T11:08:27.889Z,4.18
2022-08-03T11:11:00.037Z,4.15
2022-08-03T11:13:33.289Z,4.10
2022-08-03T11:16:07.187Z,3.95
2022-08-03T11:18:37.862Z,4.57
2022-08-03T11:21:09.974Z,4.03
2022-08-03T11:24:03.490Z,4.03
2022-08-03T11:26:35.799Z,4.40
2022-08-03T11:29:30.852Z,4.18
2022-08-03T11:32:00.244Z,3.90
2022-08-03T11:34:30.032Z,4.38
2022-08-03T11:37:31.359Z,3.97
2022-08-03T11:40:03.178Z,3.90
2022-08-03T11:42:47.663Z,4.32
2022-08-03T11:45:19.504Z,4.13
2022-08-03T11:47:51.617Z,3.92
2022-08-03T11:50:22.087Z,4.28
2022-08-03T11:52:53.419Z,4.78
2022-08-03T11:55:25.026Z,4.40
2022-08-03T11:59:12.893Z,4.65
2022-08-03T12:00:51.576Z,4.32
2022-08-03T12:03:22.255Z,4.53
2022-08-03T12:05:54.817Z,4.35
2022-08-03T12:08:34.547Z,4.07
2022-08-03T12:11:08.854Z,3.93
2022-08-03T12:14:08.860Z,4.10
2022-08-03T12:16:30.759Z,4.38
2022-08-03T12:19:01.499Z,4.28
2022-08-03T12:21:31.843Z,4.22
2022-08-03T12:24:05.165Z,4.33
2022-08-03T12:26:58.832Z,4.50
2022-08-03T12:29:29.189Z,4.28
2022-08-03T12:31:58.956Z,4.15
2022-08-03T12:34:47.864Z,4.18
2022-08-03T12:37:22.559Z,4.32
2022-08-03T12:40:01.722Z,4.30
2022-08-03T12:42:35.668Z,3.92
2022-08-03T12:45:25.036Z,3.97
2022-08-03T12:47:57.539Z,4.25
2022-08-03T12:57:45.611Z,4.15
2022-08-03T13:00:21.721Z,4.50
2022-08-03T13:03:41.705Z,4.82
2022-08-03T13:05:53.629Z,4.45
2022-08-03T13:08:24.685Z,4.65
2022-08-03T13:13:42.366Z,4.35
2022-08-03T13:16:15.804Z,4.05
2022-08-03T13:18:48.236Z,4.53
2022-08-03T13:21:18.115Z,4.53
2022-08-03T13:23:48.370Z,5.25
2022-08-03T13:26:17.510Z,4.30
2022-08-03T13:28:48.547Z,4.40
2022-08-03T13:33:46.898Z,4.47
2022-08-03T13:36:21.256Z,4.28
2022-08-03T13:38:50.387Z,4.30
2022-08-03T13:41:19.585Z,4.32
2022-08-03T13:44:26.472Z,4.28
2022-08-03T13:46:51.817Z,4.35
2022-08-03T13:49:21.191Z,5.05
2022-08-03T13:51:50.989Z,4.53
2022-08-03T13:54:20.195Z,5.35
2022-08-03T13:56:52.292Z,4.28
2022-08-03T13:59:24.501Z,4.82
2022-08-03T14:01:55.901Z,4.28
2022-08-03T14:04:25.281Z,4.53
2022-08-03T14:06:54.425Z,5.10
2022-08-03T14:09:23.830Z,5.07
2022-08-03T14:12:06.897Z,4.93
2022-08-03T14:14:39.941Z,4.90
2022-08-03T14:17:09.147Z,4.55
2022-08-03T14:19:44.910Z,4.72
2022-08-03T14:22:24.577Z,5.10
2022-08-03T14:24:53.877Z,5.22
2022-08-03T14:27:23.084Z,5.10
2022-08-03T14:29:56.204Z,6.10
2022-08-03T14:32:25.361Z,5.10
2022-08-03T14:34:54.699Z,5.93
2022-08-03T14:37:23.890Z,4.90
2022-08-03T14:40:00.944Z,5.10
2022-08-03T14:42:31.582Z,4.90
2022-08-03T14:45:09.067Z,4.82
2022-08-03T14:50:34.122Z,4.38
2022-08-03T14:50:41.009Z,4.28
2022-08-03T14:53:13.654Z,4.40
2022-08-03T14:55:50.062Z,4.80
2022-08-03T14:58:20.636Z,5.10
2022-08-03T15:00:53.978Z,5.07
2022-08-03T15:03:25.116Z,5.07
2022-08-03T15:05:55.334Z,4.57
2022-08-03T15:08:26.537Z,4.43
2022-08-03T15:10:56.063Z,5.10
2022-08-03T15:13:26.445Z,5.35
2022-08-03T15:15:57.786Z,4.80
2022-08-03T15:18:30.207Z,4.30
2022-08-03T15:20:59.637Z,4.50
2022-08-03T15:23:30.179Z,4.17
2022-08-03T15:26:29.552Z,4.43
2022-08-03T15:28:48.631Z,4.63
2022-08-03T15:31:23.042Z,5.25
2022-08-03T15:33:52.688Z,5.13
2022-08-03T15:36:22.043Z,4.63
2022-08-03T15:38:51.260Z,4.55
2022-08-03T15:41:20.688Z,5.32
2022-08-03T15:43:52.361Z,5.70
2022-08-03T15:46:30.758Z,5.40
2022-08-03T15:49:00.129Z,5.30
2022-08-03T15:51:29.545Z,5.38
2022-08-03T15:53:58.998Z,5.13
2022-08-03T15:56:28.122Z,5.90
2022-08-03T15:59:10.431Z,4.75
2022-08-03T16:01:44.470Z,5.18
2022-08-03T16:04:13.806Z,5.45
2022-08-03T16:06:43.044Z,7.30
2022-08-03T16:09:23.823Z,5.60
2022-08-03T16:12:01.556Z,5.20
2022-08-03T16:14:32.133Z,5.05
2022-08-03T16:17:09.618Z,5.30
2022-08-03T16:19:38.775Z,5.50
2022-08-03T16:22:08.353Z,4.88
2022-08-03T16:24:39.745Z,5.15
2022-08-03T16:27:36.744Z,5.30
2022-08-03T16:29:58.645Z,5.53
2022-08-03T16:32:29.997Z,5.32
2022-08-03T16:34:59.172Z,5.65
2022-08-03T16:37:50.618Z,5.68
2022-08-03T16:40:19.628Z,5.47
2022-08-03T16:45:21.307Z,5.35
2022-08-03T16:48:01.796Z,5.53
2022-08-03T16:50:37.186Z,5.25
2022-08-03T16:53:09.191Z,5.53
2022-08-03T16:55:48.837Z,5.35
2022-08-03T16:58:24.321Z,6.07
2022-08-03T17:01:10.796Z,5.85
2022-08-03T17:04:01.475Z,5.82
2022-08-03T17:06:34.499Z,5.50
2022-08-03T17:09:08.320Z,5.68
2022-08-03T17:11:46.854Z,6.40
2022-08-03T17:14:21.918Z,6.75
2022-08-03T17:16:54.249Z,6.93
2022-08-03T17:19:26.417Z,6.35
2022-08-03T17:22:01.793Z,6.20
2022-08-03T17:24:36.931Z,6.03
2022-08-03T17:28:42.150Z,6.20
2022-08-03T17:30:09.010Z,6.28
2022-08-03T17:32:42.585Z,5.90
2022-08-03T17:35:15.852Z,6.38
2022-08-03T17:38:13.752Z,6.90
2022-08-03T17:40:50.269Z,7.05
2022-08-03T17:44:12.981Z,7.10
2022-08-03T17:46:12.276Z,6.28
2022-08-03T17:48:42.226Z,6.50
2022-08-03T17:51:23.637Z,6.68
2022-08-03T17:56:45.125Z,6.40
2022-08-03T17:59:50.553Z,6.97
2022-08-03T18:02:38.691Z,7.18
2022-08-03T18:05:21.876Z,7.45
2022-08-03T18:08:00.927Z,7.60
2022-08-03T18:10:38.312Z,7.05
2022-08-03T18:13:24.877Z,7.65
2022-08-03T18:16:04.638Z,7.93
2022-08-03T18:18:37.631Z,8.10
2022-08-03T18:21:17.044Z,7.13
2022-08-03T18:23:51.853Z,6.95
2022-08-03T18:26:22.327Z,8.18
2022-08-03T18:28:54.546Z,7.53
2022-08-03T18:31:59.872Z,8.38
2022-08-03T18:34:33.912Z,8.13
2022-08-03T18:37:07.677Z,7.53
2022-08-03T18:39:50.007Z,8.27
2022-08-03T18:42:25.904Z,10.07
2022-08-03T18:44:57.111Z,8.55
2022-08-03T18:47:52.624Z,8.55
2022-08-03T18:50:30.638Z,8.60
2022-08-03T18:53:16.380Z,8.63
2022-08-03T18:56:01.236Z,8.63
2022-08-03T18:58:40.607Z,8.82
2022-08-03T19:02:00.322Z,7.82
2022-08-03T19:04:14.168Z,8.05
2022-08-03T19:06:49.105Z,8.60
2022-08-03T19:09:27.897Z,8.48
2022-08-03T19:12:13.189Z,8.65
2022-08-03T19:14:55.858Z,8.95
2022-08-03T19:17:30.335Z,8.15
2022-08-03T19:20:02.784Z,8.55
2022-08-03T19:22:34.415Z,7.97
2022-08-03T19:25:07.124Z,8.45
2022-08-03T19:27:46.662Z,8.52
2022-08-03T19:30:32.320Z,9.23
2022-08-03T19:33:02.545Z,9.45
2022-08-03T19:35:52.081Z,9.38
2022-08-03T19:38:28.186Z,9.40
2022-08-03T19:41:03.228Z,9.35
2022-08-03T19:43:53.836Z,8.52
2022-08-03T19:46:31.100Z,8.77
2022-08-03T19:49:04.958Z,8.75
2022-08-03T19:54:52.970Z,8.43
2022-08-03T19:57:28.822Z,8.50
2022-08-03T20:00:03.410Z,8.05
2022-08-03T20:02:35.063Z,7.80
2022-08-03T20:05:04.701Z,7.90
2022-08-03T20:07:47.808Z,9.00
2022-08-03T20:10:19.023Z,7.90
2022-08-03T20:12:49.577Z,8.80
2022-08-03T20:15:31.731Z,9.07
2022-08-03T20:18:01.583Z,8.93
2022-08-03T20:20:34.741Z,8.77
2022-08-03T20:23:08.491Z,8.63
2022-08-03T20:25:55.722Z,8.55
2022-08-03T20:28:32.337Z,8.73
2022-08-03T20:31:04.856Z,7.95
2022-08-03T20:33:46.547Z,7.95
2022-08-03T20:36:19.166Z,8.65
2022-08-03T20:38:49.534Z,8.13
2022-08-03T20:41:21.630Z,8.00
2022-08-03T20:43:50.985Z,7.55
2022-08-03T20:46:31.132Z,7.28
2022-08-03T20:49:07.334Z,8.30
2022-08-03T20:54:31.353Z,7.03
2022-08-03T20:57:04.075Z,6.78
2022-08-03T20:59:50.255Z,6.85
2022-08-03T21:02:30.231Z,7.20
2022-08-03T21:05:08.190Z,6.80
2022-08-03T21:08:03.842Z,7.35
2022-08-03T21:10:37.837Z,6.93
2022-08-03T21:13:03.089Z,8.63
2022-08-03T21:13:17.434Z,7.00
2022-08-03T21:16:06.099Z,6.90
2022-08-03T21:21:17.108Z,7.28
2022-08-03T21:23:50.287Z,16.17
2022-08-03T21:26:20.758Z,7.40
2022-08-03T21:28:51.048Z,7.38
2022-08-03T21:31:25.592Z,7.32
2022-08-03T21:34:00.097Z,7.22
2022-08-03T21:36:31.194Z,7.90
2022-08-03T21:39:01.144Z,7.55
2022-08-03T21:41:33.724Z,8.32
2022-08-03T21:44:05.840Z,8.52
2022-08-03T21:46:37.538Z,8.68
2022-08-03T21:50:05.167Z,8.23
2022-08-03T21:52:06.536Z,8.68
2022-08-03T21:54:38.334Z,8.43
2022-08-03T21:57:15.909Z,8.13
2022-08-03T21:59:53.499Z,8.52
2022-08-03T22:02:27.423Z,9.00
2022-08-03T22:04:59.257Z,9.05
2022-08-03T22:07:30.965Z,8.77
2022-08-03T22:10:02.360Z,8.32
2022-08-03T22:12:33.236Z,8.30
2022-08-03T22:15:03.838Z,8.10
2022-08-03T22:17:55.106Z,7.60
2022-08-03T22:20:28.524Z,8.32
2022-08-03T22:23:01.732Z,8.27
2022-08-03T22:25:33.550Z,7.78
2022-08-03T22:28:04.544Z,8.75
2022-08-03T22:30:34.743Z,8.30
2022-08-03T22:33:10.967Z,8.05
2022-08-03T22:35:47.765Z,8.65
2022-08-03T22:38:20.132Z,8.80
2022-08-03T22:40:51.383Z,8.45
2022-08-03T22:43:24.590Z,8.55
2022-08-03T22:46:09.066Z,7.93
2022-08-03T22:48:41.625Z,9.10
2022-08-03T22:51:12.989Z,8.60
2022-08-03T22:53:42.487Z,8.23
2022-08-03T22:56:12.047Z,8.40
2022-08-03T22:58:41.282Z,8.80
2022-08-03T23:01:13.118Z,8.82
2022-08-03T23:04:00.956Z,8.90
2022-08-03T23:06:37.303Z,8.43
2022-08-03T23:09:08.789Z,8.65
2022-08-03T23:14:17.201Z,8.85
2022-08-03T23:16:50.002Z,8.65
2022-08-03T23:19:25.584Z,9.20
2022-08-03T23:22:03.152Z,9.23
2022-08-03T23:24:37.666Z,9.50
2022-08-03T23:27:08.773Z,8.70
2022-08-03T23:29:39.384Z,9.18
2022-08-03T23:32:10.480Z,9.30
2022-08-03T23:34:54.466Z,9.27
2022-08-03T23:37:29.320Z,9.68
2022-08-03T23:40:00.344Z,12.27
2022-08-03T23:42:30.456Z,10.23
2022-08-03T23:45:05.723Z,10.63
2022-08-03T23:47:47.456Z,10.93
2022-08-03T23:50:17.817Z,9.57
2022-08-03T23:52:59.681Z,10.30
2022-08-03T23:55:44.765Z,10.65
2022-08-03T23:58:24.994Z,10.40
